Houghton County Memorial Airport Hancock US
ICAO: KCMX
IATA: CMX
Category: Medium
Scheduled Services: Yes

Elevation: 1095 ft
TransAlt. 18000 ft.

Airport Communications:
ASOS:125.675
MINNEAPOLIS CNTR:127.2
GREEN BAY RDO:122.525
CTAF/UNICOM:122.7

KCMX Zoom In..

Runways:

(A) RW 07 length 5201 ft width 100 ft
---- / hdg 69

(B) RW 13 length 6500 ft width 150 ft
---- / hdg 133

(C) RW 25 length 5201 ft width 100 ft
---- / hdg 249

(D) RW 31 length 6500 ft width 150 ft
ILS 110.30 / hdg 313

Location; KCMX
Day. 19 / Time. 20.53 Zulu
* Altimeter: 29.87
* Temperature: 26° c. 78.8°f.
* Wind from: 090° Speed 08 kn.
Dewpoint: 15° c.
Visibility: 10 Statute Miles.
Clouds: Clear (automated report).

KCMX 192053Z AUTO 09008KT 10SM CLR 26/15 A2987 RMK AO2 SLP112 T02560150 58017


Wind From 090°
Speed 08 kn.

 
 
jpsmedia.com for Web Design worldairports.se 2018   terms of use